createdAt,value
2016-10-30T00:00:56.782Z,12.61
2016-10-30T00:02:06.456Z,12.56
2016-10-30T00:03:15.826Z,12.58
2016-10-30T00:04:26.124Z,12.62
2016-10-30T00:05:35.789Z,12.53
2016-10-30T00:06:46.081Z,12.55
2016-10-30T00:07:56.061Z,12.53
2016-10-30T00:09:06.349Z,12.55
2016-10-30T00:10:16.011Z,12.55
2016-10-30T00:11:25.994Z,12.51
2016-10-30T00:12:35.975Z,12.44
2016-10-30T00:13:46.251Z,12.56
2016-10-30T00:14:56.572Z,12.55
2016-10-30T00:16:05.926Z,12.41
2016-10-30T00:17:16.210Z,12.47
2016-10-30T00:18:26.195Z,12.43
2016-10-30T00:19:36.177Z,12.41
2016-10-30T00:20:46.135Z,12.37
2016-10-30T00:21:56.105Z,12.38
2016-10-30T00:23:06.099Z,12.47
2016-10-30T00:24:16.065Z,12.37
2016-10-30T00:25:26.047Z,12.43
2016-10-30T00:26:36.343Z,12.37
2016-10-30T00:27:46.323Z,12.36
2016-10-30T00:28:56.613Z,12.38
2016-10-30T00:30:06.268Z,12.36
2016-10-30T00:31:16.556Z,12.33
2016-10-30T00:32:26.843Z,12.31
2016-10-30T00:33:36.815Z,12.33
2016-10-30T00:34:47.103Z,12.25
2016-10-30T00:35:57.403Z,12.29
2016-10-30T00:37:07.703Z,12.33
2016-10-30T00:38:17.682Z,12.28
2016-10-30T00:39:27.679Z,12.29
2016-10-30T00:40:37.979Z,12.34
2016-10-30T00:41:47.651Z,12.29
2016-10-30T00:42:57.958Z,12.26
2016-10-30T00:44:07.930Z,12.36
2016-10-30T00:45:17.349Z,12.25
2016-10-30T00:46:27.337Z,12.38
2016-10-30T00:47:37.616Z,12.33
2016-10-30T00:48:47.911Z,12.29
2016-10-30T00:49:58.192Z,12.26
2016-10-30T00:51:08.519Z,12.36
2016-10-30T00:52:18.871Z,12.38
2016-10-30T00:53:29.160Z,12.36
2016-10-30T00:54:39.444Z,12.52
2016-10-30T00:55:49.736Z,12.51
2016-10-30T00:57:00.023Z,12.53
2016-10-30T00:58:09.705Z,12.56
2016-10-30T00:59:19.358Z,12.59
2016-10-30T01:00:29.333Z,12.62
2016-10-30T01:01:39.010Z,12.56
2016-10-30T01:02:49.305Z,12.58
2016-10-30T01:03:59.643Z,12.63
2016-10-30T01:05:09.009Z,12.74
2016-10-30T01:06:19.002Z,12.74
2016-10-30T01:07:28.978Z,12.77
2016-10-30T01:08:39.277Z,12.81
2016-10-30T01:09:49.261Z,12.78
2016-10-30T01:10:59.250Z,12.83
2016-10-30T01:12:08.940Z,12.78
2016-10-30T01:13:19.273Z,12.78
2016-10-30T01:14:29.548Z,12.81
2016-10-30T01:15:39.876Z,12.86
2016-10-30T01:16:50.161Z,12.84
2016-10-30T01:17:59.840Z,12.8
2016-10-30T01:19:09.815Z,12.84
2016-10-30T01:20:19.793Z,12.88
2016-10-30T01:21:29.798Z,12.83
2016-10-30T01:22:40.081Z,12.91
2016-10-30T01:23:50.062Z,12.89
2016-10-30T01:25:00.354Z,12.88
2016-10-30T01:26:10.641Z,12.8
2016-10-30T01:27:20.972Z,12.81
2016-10-30T01:28:31.256Z,12.89
2016-10-30T01:29:41.555Z,12.81
2016-10-30T01:30:51.533Z,12.84
2016-10-30T01:32:01.499Z,12.86
2016-10-30T01:33:11.470Z,12.8
2016-10-30T01:34:21.752Z,12.74
2016-10-30T01:35:32.023Z,12.83
2016-10-30T01:36:42.006Z,12.81
2016-10-30T01:37:51.974Z,12.8
2016-10-30T01:39:01.960Z,12.76
2016-10-30T01:40:11.627Z,12.84
2016-10-30T01:41:21.659Z,12.74
2016-10-30T01:42:31.981Z,12.71
2016-10-30T01:43:42.271Z,12.73
2016-10-30T01:44:52.565Z,12.76
2016-10-30T01:46:02.564Z,12.71
2016-10-30T01:47:12.233Z,12.7
2016-10-30T01:48:22.527Z,12.78
2016-10-30T01:49:32.517Z,12.74
2016-10-30T01:50:42.810Z,12.56
2016-10-30T01:51:52.489Z,12.61
2016-10-30T01:53:02.510Z,12.55
2016-10-30T01:54:12.791Z,12.58
2016-10-30T01:55:23.078Z,12.58
2016-10-30T01:56:33.069Z,12.43
2016-10-30T01:57:43.356Z,12.38
2016-10-30T01:58:53.638Z,12.4
2016-10-30T02:00:03.611Z,12.36
2016-10-30T02:01:13.909Z,12.25
2016-10-30T02:02:23.909Z,12.28
2016-10-30T02:03:34.200Z,12.23
2016-10-30T02:04:44.196Z,12.25
2016-10-30T02:05:54.478Z,12.2
2016-10-30T02:07:04.506Z,12.26
2016-10-30T02:08:14.528Z,12.15
2016-10-30T02:09:24.523Z,12.13
2016-10-30T02:10:34.841Z,12.13
2016-10-30T02:11:45.062Z,12.16
2016-10-30T02:12:55.367Z,12.11
2016-10-30T02:14:05.039Z,12.1
2016-10-30T02:15:14.717Z,12.16
2016-10-30T02:16:24.431Z,12.19
2016-10-30T02:17:34.409Z,12.13
2016-10-30T02:18:44.086Z,12.15
2016-10-30T02:19:54.375Z,12.15
2016-10-30T02:21:04.660Z,12.16
2016-10-30T02:22:14.952Z,12.1
2016-10-30T02:23:25.245Z,12.08
2016-10-30T02:24:35.210Z,12.08
2016-10-30T02:25:45.187Z,12.05
2016-10-30T02:26:55.472Z,12.08
2016-10-30T02:28:05.789Z,12.18
2016-10-30T02:29:15.807Z,12.22
2016-10-30T02:30:25.209Z,12.19
2016-10-30T02:31:35.545Z,12.26
2016-10-30T02:32:45.878Z,12.37
2016-10-30T02:33:56.153Z,12.34
2016-10-30T02:35:06.431Z,12.38
2016-10-30T02:36:16.738Z,12.41
2016-10-30T02:37:26.410Z,12.36
2016-10-30T02:38:36.377Z,12.4
2016-10-30T02:39:46.679Z,12.33
2016-10-30T02:40:56.966Z,12.31
2016-10-30T02:42:07.266Z,12.29
2016-10-30T02:43:17.232Z,12.29
2016-10-30T02:44:27.205Z,12.36
2016-10-30T02:45:36.878Z,12.29
2016-10-30T02:46:46.882Z,12.36
2016-10-30T02:47:56.895Z,12.26
2016-10-30T02:49:06.900Z,12.36
2016-10-30T02:50:17.182Z,12.38
2016-10-30T02:51:27.465Z,12.38
2016-10-30T02:52:37.746Z,12.28
2016-10-30T02:53:47.709Z,12.26
2016-10-30T02:54:57.680Z,12.31
2016-10-30T02:56:07.670Z,12.18
2016-10-30T02:57:17.652Z,12.23
2016-10-30T02:58:27.318Z,12.33
2016-10-30T02:59:37.341Z,12.33
2016-10-30T03:00:47.628Z,12.31
2016-10-30T03:32:16.343Z,10.11
2016-10-30T03:33:26.020Z,10.05
2016-10-30T03:34:35.991Z,10
2016-10-30T03:35:46.289Z,10.1
2016-10-30T03:36:56.620Z,10.11
2016-10-30T03:38:06.606Z,10.28
2016-10-30T03:39:16.933Z,10.41
2016-10-30T03:40:26.653Z,10.58
2016-10-30T03:41:36.637Z,10.76
2016-10-30T03:42:46.632Z,10.85
2016-10-30T03:43:56.915Z,11.05
2016-10-30T03:45:06.601Z,11.16
2016-10-30T03:46:16.930Z,11.3
2016-10-30T03:47:26.616Z,11.38
2016-10-30T03:48:36.887Z,11.48
2016-10-30T03:49:46.849Z,11.66
2016-10-30T03:50:56.821Z,11.85
2016-10-30T03:52:07.122Z,11.84
2016-10-30T03:53:17.397Z,11.81
2016-10-30T03:54:27.688Z,11.91
2016-10-30T03:55:37.656Z,12.01
2016-10-30T03:56:47.331Z,12.1
2016-10-30T03:57:57.310Z,12.16
2016-10-30T03:59:07.597Z,12.16
2016-10-30T04:00:17.888Z,12.19
2016-10-30T04:01:27.877Z,12.2
2016-10-30T04:02:38.166Z,12.05
2016-10-30T04:03:48.151Z,12.18
2016-10-30T04:04:57.805Z,12.13
2016-10-30T04:06:07.474Z,12.18
2016-10-30T04:07:17.128Z,12.19
2016-10-30T04:08:27.091Z,12.16
2016-10-30T04:09:37.427Z,12.16
2016-10-30T04:10:47.695Z,12.16
2016-10-30T04:11:57.056Z,12.19
2016-10-30T04:13:07.032Z,12.1
2016-10-30T04:14:16.742Z,12.2
2016-10-30T04:15:27.039Z,12.16
2016-10-30T04:16:37.011Z,12.1
2016-10-30T04:17:47.283Z,12.18
2016-10-30T04:18:56.956Z,12.26
2016-10-30T04:20:06.938Z,12.23
2016-10-30T04:21:16.919Z,12.29
2016-10-30T04:22:27.210Z,12.33
2016-10-30T04:23:37.532Z,12.34
2016-10-30T04:24:47.193Z,12.38
2016-10-30T04:25:56.855Z,12.43
2016-10-30T04:27:06.511Z,12.52
2016-10-30T04:28:15.865Z,12.55
2016-10-30T04:29:25.860Z,12.51
2016-10-30T04:30:35.851Z,12.59
2016-10-30T04:31:46.138Z,12.55
2016-10-30T04:32:55.806Z,12.52
2016-10-30T04:34:06.137Z,12.51
2016-10-30T04:35:16.108Z,12.62
2016-10-30T04:36:26.087Z,12.58
2016-10-30T04:37:36.369Z,12.55
2016-10-30T04:38:46.352Z,12.52
2016-10-30T04:39:56.347Z,12.56
2016-10-30T04:41:06.636Z,12.55
2016-10-30T04:42:16.913Z,12.56
2016-10-30T04:43:26.890Z,12.58
2016-10-30T04:44:36.863Z,12.55
2016-10-30T04:45:46.834Z,12.56
2016-10-30T04:46:57.116Z,12.56
2016-10-30T04:48:07.397Z,12.59
2016-10-30T04:49:17.094Z,12.59
2016-10-30T04:50:26.776Z,12.61
2016-10-30T04:51:37.059Z,12.62
2016-10-30T04:52:47.391Z,12.56
2016-10-30T04:53:57.671Z,12.56
2016-10-30T04:55:07.327Z,12.52
2016-10-30T04:56:17.609Z,12.61
2016-10-30T04:57:27.281Z,12.53
2016-10-30T04:58:37.257Z,12.58
2016-10-30T04:59:47.244Z,12.55
2016-10-30T05:00:57.225Z,12.56
2016-10-30T05:02:06.917Z,12.53
2016-10-30T05:03:17.204Z,12.55
2016-10-30T05:04:26.895Z,12.51
2016-10-30T05:05:36.885Z,12.55
2016-10-30T05:06:46.864Z,12.43
2016-10-30T05:07:57.142Z,12.48
2016-10-30T05:09:07.423Z,12.4
2016-10-30T05:10:17.704Z,12.41
2016-10-30T05:11:28.008Z,12.44
2016-10-30T05:12:37.982Z,12.43
2016-10-30T05:13:48.289Z,12.53
2016-10-30T05:14:58.246Z,12.41
2016-10-30T05:16:08.228Z,12.47
2016-10-30T05:17:18.520Z,12.47
2016-10-30T05:18:28.805Z,12.44
2016-10-30T05:19:38.782Z,12.41
2016-10-30T05:20:48.777Z,12.44
2016-10-30T05:21:58.777Z,12.37
2016-10-30T05:23:09.091Z,12.41
2016-10-30T05:24:19.073Z,12.4
2016-10-30T05:25:29.048Z,12.4
2016-10-30T05:26:39.023Z,12.37
2016-10-30T05:27:49.305Z,12.38
2016-10-30T05:28:59.575Z,12.38
2016-10-30T05:30:09.592Z,12.36
2016-10-30T05:31:19.599Z,12.34
2016-10-30T05:32:29.895Z,12.34
2016-10-30T05:33:40.163Z,12.26
2016-10-30T05:34:50.474Z,12.33
2016-10-30T05:36:00.742Z,12.29
2016-10-30T05:37:10.718Z,12.36
2016-10-30T05:38:21.016Z,12.34
2016-10-30T05:39:31.311Z,12.41
2016-10-30T05:40:41.319Z,12.44
2016-10-30T05:41:51.595Z,12.45
2016-10-30T05:43:01.566Z,12.38
2016-10-30T05:44:11.553Z,12.43
2016-10-30T05:45:21.569Z,12.52
2016-10-30T05:46:31.852Z,12.53
2016-10-30T05:47:42.134Z,12.53
2016-10-30T05:48:52.110Z,12.55
2016-10-30T05:50:02.388Z,12.53
2016-10-30T05:51:12.370Z,12.55
2016-10-30T05:52:22.045Z,12.61
2016-10-30T05:53:32.330Z,12.73
2016-10-30T05:54:42.615Z,12.69
2016-10-30T05:55:52.599Z,12.76
2016-10-30T05:57:02.571Z,12.76
2016-10-30T05:58:12.853Z,12.91
2016-10-30T05:59:22.859Z,12.89
2016-10-30T06:00:32.832Z,12.92
2016-10-30T06:01:42.823Z,12.92
2016-10-30T06:02:52.500Z,12.98
2016-10-30T06:04:02.521Z,13.06
2016-10-30T06:05:11.885Z,13.11
2016-10-30T06:06:22.161Z,13.2
2016-10-30T06:07:32.126Z,13.29
2016-10-30T06:08:42.438Z,13.29
2016-10-30T06:09:52.720Z,13.4
2016-10-30T06:11:02.707Z,13.42
2016-10-30T06:12:13.009Z,13.42
2016-10-30T06:13:23.292Z,13.47
2016-10-30T06:14:33.594Z,13.58
2016-10-30T06:15:43.559Z,13.48
2016-10-30T06:16:53.532Z,13.6
2016-10-30T06:18:03.820Z,13.66
2016-10-30T06:19:13.799Z,13.73
2016-10-30T06:20:24.096Z,13.84
2016-10-30T06:21:34.076Z,13.87
2016-10-30T06:22:44.370Z,13.94
2016-10-30T06:23:54.719Z,14.08
2016-10-30T06:25:04.704Z,14.09
2016-10-30T06:26:14.668Z,14.09
2016-10-30T06:27:24.646Z,14.24
2016-10-30T06:28:34.622Z,14.19
2016-10-30T06:29:44.299Z,14.16
2016-10-30T06:30:53.990Z,14.23
2016-10-30T06:32:04.268Z,14.21
2016-10-30T06:33:14.259Z,14.11
2016-10-30T06:34:24.548Z,14.12
2016-10-30T06:35:34.859Z,13.93
2016-10-30T06:36:45.139Z,13.9
2016-10-30T06:37:54.810Z,13.84
2016-10-30T06:39:05.094Z,13.78
2016-10-30T06:40:15.079Z,13.81
2016-10-30T06:41:25.069Z,13.88
2016-10-30T06:42:35.388Z,13.97
2016-10-30T06:43:45.370Z,13.94
2016-10-30T06:44:55.351Z,14.02
2016-10-30T06:46:05.673Z,14.12
2016-10-30T06:47:15.646Z,14.09
2016-10-30T06:48:25.951Z,14.2
2016-10-30T06:49:35.958Z,14.19
2016-10-30T06:50:45.938Z,14.28
2016-10-30T06:51:55.912Z,14.28
2016-10-30T06:53:05.911Z,14.23
2016-10-30T06:54:16.205Z,14.36
2016-10-30T06:55:26.477Z,14.28
2016-10-30T06:56:36.758Z,14.42
2016-10-30T06:57:47.039Z,14.44
2016-10-30T06:58:57.337Z,14.49
2016-10-30T07:00:07.626Z,14.49
2016-10-30T07:01:17.916Z,14.57
2016-10-30T07:02:28.202Z,14.66
2016-10-30T07:03:38.188Z,14.66
2016-10-30T07:04:48.176Z,14.63
2016-10-30T07:05:58.167Z,14.75
2016-10-30T07:07:08.458Z,14.79
2016-10-30T07:08:18.740Z,14.75
2016-10-30T07:09:29.046Z,14.74
2016-10-30T07:10:39.348Z,14.71
2016-10-30T07:11:49.635Z,14.74
2016-10-30T07:12:59.921Z,14.77
2016-10-30T07:14:10.195Z,14.74
2016-10-30T07:15:20.497Z,14.82
2016-10-30T07:16:30.515Z,14.74
2016-10-30T07:17:40.804Z,14.87
2016-10-30T07:18:51.320Z,14.89
2016-10-30T07:20:00.728Z,15.07
2016-10-30T07:21:11.024Z,15.1
2016-10-30T07:22:21.026Z,15.26
2016-10-30T07:23:31.313Z,15.35
2016-10-30T07:24:41.214Z,15.23
2016-10-30T07:25:51.185Z,15.25
2016-10-30T07:27:01.488Z,15.19
2016-10-30T07:28:11.778Z,15.23
2016-10-30T07:29:22.067Z,15.22
2016-10-30T07:30:32.035Z,15.4
2016-10-30T07:31:42.344Z,15.44
2016-10-30T07:32:52.635Z,15.45
2016-10-30T07:34:02.624Z,15.6
2016-10-30T07:35:12.647Z,15.63
2016-10-30T07:36:22.326Z,15.73
2016-10-30T07:37:32.327Z,15.84
2016-10-30T07:38:41.696Z,15.86
2016-10-30T07:39:51.961Z,15.88
2016-10-30T07:41:02.248Z,15.86
2016-10-30T07:42:12.539Z,15.92
2016-10-30T07:43:22.826Z,15.95
2016-10-30T07:44:33.117Z,16.11
2016-10-30T07:45:43.106Z,16.22
2016-10-30T07:46:52.804Z,16.29
2016-10-30T07:48:02.489Z,16.44
2016-10-30T07:49:12.774Z,16.34
2016-10-30T07:50:23.059Z,16.39
2016-10-30T07:51:33.527Z,16.44
2016-10-30T07:52:42.890Z,16.44
2016-10-30T07:53:52.863Z,16.4
2016-10-30T07:55:02.848Z,16.48
2016-10-30T07:56:13.145Z,16.42
2016-10-30T07:57:23.461Z,16.58
2016-10-30T07:58:33.139Z,16.55
2016-10-30T07:59:43.424Z,16.72
2016-10-30T08:00:53.418Z,16.91
2016-10-30T08:02:03.727Z,16.97
2016-10-30T08:03:14.032Z,17.05
2016-10-30T08:04:24.017Z,17.13
2016-10-30T08:05:34.002Z,17.25
2016-10-30T08:06:44.299Z,17.45
2016-10-30T08:07:54.291Z,17.63
2016-10-30T08:09:03.967Z,17.92
2016-10-30T08:10:13.941Z,17.95
2016-10-30T08:11:24.232Z,18.08
2016-10-30T08:12:34.227Z,18.34
2016-10-30T08:13:44.529Z,18.53
2016-10-30T08:14:54.522Z,18.61
2016-10-30T08:16:04.813Z,18.69
2016-10-30T08:17:15.122Z,18.56
2016-10-30T08:18:25.420Z,18.45
2016-10-30T08:19:35.708Z,18.44
2016-10-30T08:20:45.419Z,18.31
2016-10-30T08:21:55.457Z,18.2
2016-10-30T08:23:05.502Z,18.23
2016-10-30T08:24:15.840Z,18.24
2016-10-30T08:25:25.889Z,18.19
2016-10-30T08:26:35.874Z,18.26
2016-10-30T08:27:45.556Z,18.53
2016-10-30T08:28:55.543Z,18.72
2016-10-30T08:30:05.852Z,18.81
2016-10-30T08:31:15.861Z,18.71
2016-10-30T08:32:25.843Z,18.6
2016-10-30T08:33:35.844Z,18.56
2016-10-30T08:34:45.879Z,18.45
2016-10-30T08:35:55.941Z,18.35
2016-10-30T08:37:06.239Z,18.16
2016-10-30T08:38:16.270Z,18.06
2016-10-30T08:39:25.951Z,18.01
2016-10-30T08:40:35.939Z,17.83
2016-10-30T08:41:46.085Z,17.71
2016-10-30T08:42:56.371Z,17.65
2016-10-30T08:44:06.360Z,17.68
2016-10-30T08:45:16.655Z,17.63
2016-10-30T08:46:26.521Z,17.83
2016-10-30T08:47:36.824Z,17.9
2016-10-30T08:48:47.160Z,18.03
2016-10-30T08:49:57.137Z,18.2
2016-10-30T08:51:07.438Z,18.31
2016-10-30T08:52:17.746Z,18.5
2016-10-30T08:53:27.827Z,18.71
2016-10-30T08:54:38.165Z,18.76
2016-10-30T08:55:48.207Z,18.91
2016-10-30T08:56:58.238Z,18.96
2016-10-30T08:58:08.534Z,19.05
2016-10-30T08:59:18.251Z,19.07
2016-10-30T09:00:27.947Z,19.31
2016-10-30T09:01:37.996Z,19.46
2016-10-30T09:02:47.734Z,19.65
2016-10-30T09:03:57.767Z,19.78
2016-10-30T09:05:08.136Z,19.93
2016-10-30T09:06:18.170Z,19.87
2016-10-30T09:07:28.177Z,19.78
2016-10-30T09:08:37.875Z,19.68
2016-10-30T09:09:47.899Z,19.63
2016-10-30T09:10:57.907Z,19.61
2016-10-30T09:12:08.233Z,19.56
2016-10-30T09:13:18.571Z,19.65
2016-10-30T09:14:28.902Z,19.61
2016-10-30T09:15:38.884Z,19.61
2016-10-30T09:16:48.575Z,19.7
2016-10-30T09:17:58.873Z,19.6
2016-10-30T09:19:09.192Z,19.63
2016-10-30T09:20:18.867Z,19.56
2016-10-30T09:21:28.899Z,19.56
2016-10-30T09:22:39.192Z,19.37
2016-10-30T09:23:49.208Z,19.12
2016-10-30T09:24:59.187Z,19.12
2016-10-30T09:26:09.507Z,19.09
2016-10-30T09:27:19.847Z,19.1
2016-10-30T09:28:29.904Z,19.25
2016-10-30T09:29:40.199Z,19.46
2016-10-30T09:30:50.186Z,19.63
2016-10-30T09:31:59.903Z,19.78
2016-10-30T09:33:09.893Z,19.8
2016-10-30T09:34:19.891Z,19.79
2016-10-30T09:35:29.931Z,19.98
2016-10-30T09:36:39.624Z,19.92
2016-10-30T09:37:49.953Z,19.83
2016-10-30T09:39:00.285Z,19.83
2016-10-30T09:40:10.615Z,19.93
2016-10-30T09:41:20.597Z,19.79
2016-10-30T09:42:30.570Z,19.64
2016-10-30T09:43:40.320Z,19.61
2016-10-30T09:44:50.609Z,19.46
2016-10-30T09:46:01.003Z,19.3
2016-10-30T09:47:11.310Z,19.09
2016-10-30T09:48:21.112Z,19
2016-10-30T09:49:31.497Z,18.97
2016-10-30T09:50:41.530Z,18.82
2016-10-30T09:51:51.827Z,18.87
2016-10-30T09:53:02.159Z,18.84
2016-10-30T09:54:12.224Z,18.82
2016-10-30T09:55:22.557Z,18.91
2016-10-30T09:56:32.861Z,18.9
2016-10-30T09:57:43.255Z,19.19
2016-10-30T09:58:53.267Z,19.38
2016-10-30T10:00:03.605Z,19.42
2016-10-30T10:01:13.907Z,19.49
2016-10-30T10:02:24.247Z,19.52
2016-10-30T10:03:33.990Z,19.65
2016-10-30T10:04:44.018Z,19.68
2016-10-30T10:05:53.474Z,19.5
2016-10-30T10:07:03.788Z,19.28
2016-10-30T10:08:14.150Z,19.07
2016-10-30T10:09:24.204Z,19.05
2016-10-30T10:10:34.230Z,19.15
2016-10-30T10:11:44.247Z,19.13
2016-10-30T10:12:53.937Z,19.15
2016-10-30T10:14:04.064Z,19.24
2016-10-30T10:15:14.115Z,19.3
2016-10-30T10:16:24.473Z,19.4
2016-10-30T10:17:34.768Z,19.43
2016-10-30T10:18:45.150Z,19.55
2016-10-30T10:19:55.149Z,19.75
2016-10-30T10:21:05.163Z,20.22
2016-10-30T10:22:15.220Z,20.44
2016-10-30T10:23:25.594Z,20.37
2016-10-30T10:24:35.905Z,20.3
2016-10-30T10:25:45.657Z,20.44
2016-10-30T10:26:55.990Z,20.07
2016-10-30T10:28:06.297Z,19.72
2016-10-30T10:29:16.341Z,19.45
2016-10-30T10:30:26.420Z,19.25
2016-10-30T10:31:36.790Z,19.24
2016-10-30T10:32:46.507Z,19.25
2016-10-30T10:33:56.574Z,19.1
2016-10-30T10:35:06.927Z,18.96
2016-10-30T10:36:16.940Z,18.76
2016-10-30T10:37:26.947Z,18.54
2016-10-30T10:38:37.329Z,18.32
2016-10-30T10:39:47.327Z,18.13
2016-10-30T10:40:57.319Z,18.03
2016-10-30T10:42:07.031Z,18.05
2016-10-30T10:43:17.026Z,18.03
2016-10-30T10:44:27.451Z,17.94
2016-10-30T10:45:37.477Z,17.86
2016-10-30T10:46:47.802Z,17.77
2016-10-30T10:47:58.120Z,17.63
2016-10-30T10:49:08.179Z,17.52
2016-10-30T10:50:18.513Z,17.47
2016-10-30T10:51:28.843Z,17.47
2016-10-30T10:52:39.196Z,17.27
2016-10-30T10:53:49.184Z,17.21
2016-10-30T10:54:59.516Z,17.12
2016-10-30T10:56:09.516Z,17.05
2016-10-30T10:57:19.843Z,17.1
2016-10-30T10:58:29.894Z,17.06
2016-10-30T10:59:39.571Z,17.06
2016-10-30T11:00:49.878Z,17.15
2016-10-30T11:01:59.954Z,17.18
2016-10-30T11:03:10.306Z,17.2
2016-10-30T11:04:20.299Z,17.24
2016-10-30T11:05:30.619Z,17.32
2016-10-30T11:06:40.617Z,17.4
2016-10-30T11:07:50.987Z,17.49
2016-10-30T11:09:00.678Z,17.52
2016-10-30T11:10:10.976Z,17.71
2016-10-30T11:11:20.718Z,17.84
2016-10-30T11:12:30.734Z,17.95
2016-10-30T11:13:41.039Z,18.13
2016-10-30T11:14:51.346Z,18.14
2016-10-30T11:16:01.325Z,18.16
2016-10-30T11:17:11.320Z,18.13
2016-10-30T11:18:21.631Z,18.26
2016-10-30T11:19:31.665Z,18.35
2016-10-30T11:20:41.990Z,18.39
2016-10-30T11:21:52.016Z,18.47
2016-10-30T11:23:02.336Z,18.53
2016-10-30T11:24:12.342Z,18.63
2016-10-30T11:25:22.740Z,18.81
2016-10-30T11:26:32.744Z,18.89
2016-10-30T11:27:42.740Z,18.96
2016-10-30T11:28:53.061Z,19.12
2016-10-30T11:30:03.042Z,19.24
2016-10-30T11:31:13.043Z,19.31
2016-10-30T11:32:23.066Z,19.56
2016-10-30T11:33:32.772Z,19.85
2016-10-30T11:34:42.784Z,20.07
2016-10-30T11:35:52.767Z,20.04
2016-10-30T11:37:03.058Z,19.78
2016-10-30T11:38:13.378Z,19.7
2016-10-30T11:39:23.679Z,19.37
2016-10-30T11:40:33.988Z,19.16
2016-10-30T11:41:43.987Z,18.94
2016-10-30T11:42:54.299Z,18.86
2016-10-30T11:44:04.003Z,18.84
2016-10-30T11:45:14.315Z,18.72
2016-10-30T11:46:24.616Z,18.6
2016-10-30T11:47:34.664Z,18.53
2016-10-30T11:48:44.663Z,18.41
2016-10-30T11:49:54.675Z,18.31
2016-10-30T11:51:04.686Z,18.16
2016-10-30T11:52:14.996Z,17.98
2016-10-30T11:53:24.670Z,17.95
2016-10-30T11:54:34.977Z,17.81
2016-10-30T11:55:45.275Z,17.76
2016-10-30T11:56:54.966Z,17.66
2016-10-30T11:58:04.387Z,17.54
2016-10-30T11:59:14.073Z,17.46
2016-10-30T12:00:24.064Z,17.55
2016-10-30T12:01:34.051Z,17.63
2016-10-30T12:02:44.365Z,17.8
2016-10-30T12:03:54.656Z,18.06
2016-10-30T12:05:04.337Z,18.21
2016-10-30T12:06:14.335Z,18.36
2016-10-30T12:07:24.335Z,18.45
2016-10-30T12:08:34.337Z,18.59
2016-10-30T12:09:44.341Z,18.63
2016-10-30T12:10:54.045Z,18.63
2016-10-30T12:12:04.032Z,18.78
2016-10-30T12:13:13.717Z,18.97
2016-10-30T12:14:23.702Z,19.13
2016-10-30T12:15:33.694Z,19.35
2016-10-30T12:16:44.001Z,19.49
2016-10-30T12:17:54.304Z,19.57
2016-10-30T12:19:04.288Z,19.85
2016-10-30T12:20:14.623Z,20.08
2016-10-30T12:21:24.918Z,20.38
2016-10-30T12:22:34.926Z,20.57
2016-10-30T12:23:45.276Z,20.71
2016-10-30T12:24:55.597Z,20.78
2016-10-30T12:26:05.919Z,20.91
2016-10-30T12:27:15.925Z,20.78
2016-10-30T12:28:25.916Z,20.91
2016-10-30T12:29:36.213Z,20.6
2016-10-30T12:30:46.216Z,20.23
2016-10-30T12:31:56.542Z,19.98
2016-10-30T12:33:06.233Z,19.61
2016-10-30T12:34:16.228Z,19.46
2016-10-30T12:35:26.234Z,19.31
2016-10-30T12:36:36.541Z,19.2
2016-10-30T12:37:46.841Z,19.17
2016-10-30T12:38:56.822Z,19.12
2016-10-30T12:40:07.126Z,19.06
2016-10-30T12:41:17.119Z,18.79
2016-10-30T12:42:27.128Z,18.71
2016-10-30T12:43:37.512Z,18.57
2016-10-30T12:44:47.506Z,18.36
2016-10-30T12:45:57.504Z,18.2
2016-10-30T12:47:07.812Z,18.27
2016-10-30T12:48:17.842Z,18.16
2016-10-30T12:49:28.160Z,18.13
2016-10-30T12:50:38.186Z,18.06
2016-10-30T12:51:48.481Z,18.05
2016-10-30T12:52:58.488Z,18.06
2016-10-30T12:54:07.858Z,17.99
2016-10-30T12:55:17.862Z,17.95
2016-10-30T12:56:28.177Z,17.84
2016-10-30T12:57:38.181Z,17.69
2016-10-30T12:58:48.490Z,17.57
2016-10-30T12:59:58.483Z,17.4
2016-10-30T13:01:08.794Z,17.35
2016-10-30T13:02:19.112Z,17.31
2016-10-30T13:03:28.482Z,17.31
2016-10-30T13:04:38.797Z,17.35
2016-10-30T13:05:49.111Z,17.32
2016-10-30T13:06:59.437Z,17.28
2016-10-30T13:08:09.511Z,17.28
2016-10-30T13:09:19.515Z,17.3
2016-10-30T13:10:29.498Z,17.2
2016-10-30T13:11:39.189Z,17.1
2016-10-30T13:12:49.196Z,17.12
2016-10-30T13:13:59.493Z,17.15
2016-10-30T13:15:09.500Z,17.2
2016-10-30T13:16:19.790Z,17.24
2016-10-30T13:17:30.098Z,17.27
2016-10-30T13:18:40.435Z,17.21
2016-10-30T13:19:50.427Z,17.3
2016-10-30T13:21:00.416Z,17.1
2016-10-30T13:22:10.401Z,17.13
2016-10-30T13:23:20.428Z,16.91
2016-10-30T13:24:30.651Z,16.95
2016-10-30T13:25:40.939Z,16.9
2016-10-30T13:26:51.234Z,16.92
2016-10-30T13:28:01.550Z,16.91
2016-10-30T13:29:11.545Z,16.94
2016-10-30T13:30:21.849Z,16.88
2016-10-30T13:31:31.873Z,16.91
2016-10-30T13:32:42.171Z,16.87
2016-10-30T13:33:52.479Z,16.8
2016-10-30T13:35:02.798Z,16.85
2016-10-30T13:36:12.804Z,16.72
2016-10-30T13:37:22.167Z,16.69
2016-10-30T13:38:32.444Z,16.63
2016-10-30T13:39:42.443Z,16.58
2016-10-30T13:40:52.439Z,16.65
2016-10-30T13:42:02.151Z,16.58
2016-10-30T13:43:11.822Z,16.4
2016-10-30T13:44:21.809Z,16.4
2016-10-30T13:45:32.127Z,16.27
2016-10-30T13:46:41.825Z,16.16
2016-10-30T13:47:52.116Z,15.99
2016-10-30T13:49:02.107Z,15.88
2016-10-30T13:50:12.418Z,15.78
2016-10-30T13:51:22.701Z,15.96
2016-10-30T13:52:32.991Z,16
2016-10-30T13:53:43.034Z,15.89
2016-10-30T13:54:53.325Z,15.88
2016-10-30T13:56:03.035Z,15.77
2016-10-30T13:57:12.099Z,15.63
2016-10-30T13:58:22.089Z,15.65
2016-10-30T13:59:32.085Z,15.65
2016-10-30T14:00:42.086Z,15.63
2016-10-30T14:01:52.090Z,15.56
2016-10-30T14:03:01.480Z,15.51
2016-10-30T14:04:11.505Z,15.44
2016-10-30T14:05:21.179Z,15.44
2016-10-30T14:06:31.202Z,15.45
2016-10-30T14:07:41.185Z,15.34
2016-10-30T14:08:51.176Z,15.31
2016-10-30T14:10:01.486Z,15.25
2016-10-30T14:11:11.176Z,15.08
2016-10-30T14:12:21.168Z,15.15
2016-10-30T14:13:31.161Z,15.04
2016-10-30T14:14:41.205Z,15.04
2016-10-30T14:15:51.222Z,15.04
2016-10-30T14:17:01.546Z,15.04
2016-10-30T14:18:11.858Z,15.12
2016-10-30T14:19:21.995Z,15.13
2016-10-30T14:20:32.312Z,15.13
2016-10-30T14:21:42.623Z,15.12
2016-10-30T14:22:52.649Z,14.98
2016-10-30T14:24:02.649Z,15.01
2016-10-30T14:25:12.967Z,14.9
2016-10-30T14:26:22.961Z,14.9
2016-10-30T14:27:33.276Z,14.82
2016-10-30T14:28:43.598Z,14.66
2016-10-30T14:29:53.611Z,14.67
2016-10-30T14:31:03.644Z,14.69
2016-10-30T14:32:13.946Z,14.6
2016-10-30T14:33:23.953Z,14.56
2016-10-30T14:34:33.366Z,14.53
2016-10-30T14:35:43.380Z,14.57
2016-10-30T14:36:53.379Z,14.6
2016-10-30T14:38:02.445Z,14.67
2016-10-30T14:39:12.759Z,14.61
2016-10-30T14:40:22.749Z,14.67
2016-10-30T14:41:32.755Z,14.56
2016-10-30T14:42:42.749Z,14.63
2016-10-30T14:43:52.731Z,14.71
2016-10-30T14:45:02.757Z,14.6
2016-10-30T14:46:13.071Z,14.6
2016-10-30T14:47:23.360Z,14.59
2016-10-30T14:48:33.037Z,14.48
2016-10-30T14:49:43.117Z,14.51
2016-10-30T14:50:53.436Z,14.45
2016-10-30T14:52:03.129Z,14.41
2016-10-30T14:53:13.454Z,14.36
2016-10-30T14:54:23.435Z,14.27
2016-10-30T14:55:33.753Z,14.24
2016-10-30T14:56:44.070Z,14.28
2016-10-30T14:57:54.069Z,14.24
2016-10-30T14:59:04.064Z,14.21
2016-10-30T15:00:14.046Z,14.09
2016-10-30T15:01:24.374Z,14.06
2016-10-30T15:02:34.722Z,14.11
2016-10-30T15:03:44.428Z,14.11
2016-10-30T15:04:53.849Z,14.08
2016-10-30T15:06:03.520Z,13.93
2016-10-30T15:07:12.907Z,13.95
2016-10-30T15:08:22.662Z,13.99
2016-10-30T15:09:32.672Z,13.94
2016-10-30T15:10:42.997Z,13.91
2016-10-30T15:11:52.693Z,13.87
2016-10-30T15:13:02.699Z,13.9
2016-10-30T15:14:13.034Z,13.86
2016-10-30T15:15:23.330Z,13.93
2016-10-30T15:16:33.673Z,13.83
2016-10-30T15:17:43.675Z,13.87
2016-10-30T15:18:53.669Z,13.76
2016-10-30T15:20:03.659Z,13.75
2016-10-30T15:21:13.972Z,13.73
2016-10-30T15:22:24.277Z,13.65
2016-10-30T15:23:33.947Z,13.58
2016-10-30T15:24:43.937Z,13.62
2016-10-30T15:25:54.239Z,13.62
2016-10-30T15:27:04.268Z,13.58
2016-10-30T15:28:14.574Z,13.6
2016-10-30T15:29:24.576Z,13.6
2016-10-30T15:30:34.877Z,13.65
2016-10-30T15:31:45.176Z,13.51
2016-10-30T15:32:55.180Z,13.5
2016-10-30T15:34:05.191Z,13.51
2016-10-30T15:35:15.503Z,13.44
2016-10-30T15:36:25.467Z,13.45